Terminal Aerodrome Forecast
Issued by NWS

Home | Current Version | Previous Version | Text Only | Print | Product List | Glossary On
Versions: 1 2 3 4 5 6 7 8 9 10 11 12 13
000
FTUS43 KILX 282341
TAFDEC
TAF
KDEC 282341Z 2900/2924 14009KT P6SM BKN150
     FM291500 19008KT P6SM BKN120
     FM291900 22007KT P6SM VCSH BKN080=

USA.gov is the U.S. government's official web portal to all federal, state and local government web resources and services.